Overview Statistics Trail Chart Weather Telemetry Raw packets
 

This is the latest recevied weather packets stored in our database for station/object VK5GR-12. If no packets are shown the sender has not sent any weather packets the latest 10 day(s).

<< 17 18 19 20 21 22 23 >>
Time Temp. Humidity Pressure Rain* Wind** Luminosity Snow
1788257419 15° C 86% 1016.3 hPa 0 mm - 0 W/m² -
1788256517 15° C 88% 1016.1 hPa 0 mm - 0 W/m² -
1788255615 14.44° C 92% 1015.7 hPa 0 mm - 0 W/m² -
1788254713 14.44° C 92% 1015.3 hPa 0 mm - 0 W/m² -
1788253809 14.44° C 92% 1015.1 hPa 0 mm - 0 W/m² -
1788252906 14.44° C 92% 1014.8 hPa 0 mm - 0 W/m² -
1788252006 14.44° C 92% 1015.1 hPa 0 mm - 0 W/m² -
1788251105 14.44° C 93% 1015 hPa 0 mm - 3 W/m² -
1788250202 14.44° C 93% 1014.8 hPa 0 mm - 9 W/m² -
1788249297 14.44° C 93% 1015 hPa 0 mm - 11 W/m² -
1788248392 14.44° C 93% 1014.6 hPa 0 mm - 19 W/m² -
1788247489 14.44° C 93% 1014.5 hPa 0 mm - 17 W/m² -
1788246589 14.44° C 92% 1014.8 hPa 3.05 mm - 25 W/m² -
1788245685 15° C 91% 1015.8 hPa 4.83 mm - 17 W/m² -
1788244785 15° C 88% 1017 hPa 4.83 mm - 13 W/m² -
1788243885 15.56° C 85% 1017 hPa 4.83 mm - 17 W/m² -
1788242982 16.67° C 77% 1016.8 hPa 0 mm - 20 W/m² -
1788242080 18.89° C 65% 1016.3 hPa 0 mm - 14 W/m² -
1788241175 20° C 55% 1015.7 hPa 0 mm - 21 W/m² -
1788240273 20° C 56% 1015.5 hPa 0 mm - 29 W/m² -
1788239367 20° C 57% 1015.4 hPa 0 mm - 39 W/m² -
1788238464 20° C 62% 1015.3 hPa 0 mm - 50 W/m² -
1788237562 20° C 60% 1015.3 hPa 0 mm - 53 W/m² -
1788236659 20° C 57% 1015.4 hPa 0 mm - 97 W/m² -
1788235758 20.56° C 56% 1015.3 hPa 0 mm - 74 W/m² -

* Rain latest hour (hover to see other rain measurements)
** Current wind speed in m/s (hover to see current wind gust speed)